Time;durP1;ratioP1;P1;durP2;ratioP2;P2;SDS_P1;SDS_P2;PMS_P1;PMS_P2;Temp;Humidity;BMP_temperature;BMP_pressure;BME280_temperature;BME280_humidity;BME280_pressure;Samples;Min_cycle;Max_cycle;Signal;HPM_P1;HPM_P2
2022/10/16 00:00:43;;;;;;;12.20;10.90;;;;;;;13.23;100.00;149365.28;5092297;28;20184;-56
2022/10/16 00:03:11;;;;;;;11.00;10.30;;;;;;;13.22;100.00;149362.75;5092310;28;20180;-59
2022/10/16 00:05:42;;;;;;;11.80;10.93;;;;;;;13.19;100.00;149353.91;5092418;28;20188;-57
2022/10/16 00:08:10;;;;;;;10.27;9.53;;;;;;;13.18;100.00;149351.34;5092143;28;20184;-57
2022/10/16 00:10:37;;;;;;;10.90;10.20;;;;;;;13.10;100.00;149332.38;5092158;28;20194;-56
2022/10/16 00:13:06;;;;;;;10.33;9.40;;;;;;;13.10;100.00;149331.03;5092350;28;20184;-57
2022/10/16 00:15:36;;;;;;;10.80;10.00;;;;;;;12.62;100.00;149210.72;5092103;28;20190;-56
2022/10/16 00:18:03;;;;;;;9.53;8.93;;;;;;;12.60;100.00;149205.69;5092337;28;20583;-57
2022/10/16 00:20:31;;;;;;;9.67;9.03;;;;;;;12.75;100.00;149244.91;5097562;28;20622;-57
2022/10/16 00:22:58;;;;;;;10.30;9.40;;;;;;;12.73;100.00;149238.59;5112419;28;20192;-56
2022/10/16 00:25:25;;;;;;;9.47;8.93;;;;;;;12.63;100.00;149213.25;5112885;28;20658;-56
2022/10/16 00:27:52;;;;;;;9.37;8.63;;;;;;;12.64;100.00;149215.81;5112453;28;20191;-56
2022/10/16 00:30:20;;;;;;;12.50;8.40;;;;;;;12.53;100.00;149189.19;5112553;28;20191;-56
2022/10/16 00:32:47;;;;;;;9.13;8.43;;;;;;;12.39;100.00;149152.50;5112583;28;20191;-57
2022/10/16 00:35:14;;;;;;;9.20;8.60;;;;;;;12.26;100.00;149120.88;5112412;28;20761;-56
2022/10/16 00:37:41;;;;;;;9.17;8.57;;;;;;;12.11;100.00;149082.88;5112599;28;20183;-57
2022/10/16 00:40:09;;;;;;;8.67;8.17;;;;;;;12.27;100.00;149124.63;5112661;28;20187;-57
2022/10/16 00:42:35;;;;;;;8.10;7.77;;;;;;;12.21;100.00;149109.47;5112472;28;20675;-56
2022/10/16 00:45:04;;;;;;;8.30;7.73;;;;;;;12.26;100.00;149122.09;5112138;28;20191;-57
2022/10/16 00:47:35;;;;;;;7.70;7.10;;;;;;;12.21;100.00;149108.22;5112439;28;20183;-57
2022/10/16 00:50:08;;;;;;;8.37;7.93;;;;;;;12.16;100.00;149095.53;5112316;28;20224;-56
2022/10/16 00:52:35;;;;;;;8.00;7.60;;;;;;;12.18;100.00;149101.84;5112051;28;20191;-57
2022/10/16 00:55:04;;;;;;;8.13;7.37;;;;;;;12.14;100.00;149090.44;5112227;28;20600;-56
2022/10/16 00:57:31;;;;;;;7.53;7.03;;;;;;;12.09;100.00;149079.09;5115196;28;20187;-57
2022/10/16 00:59:58;;;;;;;7.37;6.90;;;;;;;12.07;100.00;149072.75;5116457;28;20209;-56
2022/10/16 01:02:25;;;;;;;6.77;6.47;;;;;;;12.04;100.00;149066.44;5116125;28;20187;-57
2022/10/16 01:04:55;;;;;;;8.37;6.93;;;;;;;11.89;100.00;149028.44;5116010;28;20184;-57
2022/10/16 01:07:35;;;;;;;7.60;7.10;;;;;;;12.09;100.00;149079.09;5116306;28;20186;-57
2022/10/16 01:10:10;;;;;;;6.87;6.57;;;;;;;12.11;100.00;149084.16;5116284;28;20197;-56
2022/10/16 01:12:43;;;;;;;7.43;6.70;;;;;;;12.08;100.00;149075.28;5116249;28;20634;-56
2022/10/16 01:15:19;;;;;;;7.30;6.80;;;;;;;11.99;100.00;149053.78;5115856;28;20294;-56
2022/10/16 01:17:50;;;;;;;6.43;6.13;;;;;;;11.90;100.00;149032.25;5115762;28;20183;-57
2022/10/16 01:20:26;;;;;;;6.97;6.37;;;;;;;11.93;100.00;149038.56;5115925;28;20237;-58
2022/10/16 01:23:08;;;;;;;6.70;6.40;;;;;;;11.97;100.00;149047.41;5116093;28;20187;-57
2022/10/16 01:25:54;;;;;;;7.53;6.93;;;;;;;11.99;100.00;149052.50;5115616;28;20654;-56
2022/10/16 01:28:29;;;;;;;7.10;6.40;;;;;;;11.78;100.00;149000.63;5115670;28;20188;-57
2022/10/16 01:31:00;;;;;;;7.23;6.70;;;;;;;11.80;100.00;149005.66;5115757;28;20187;-56
2022/10/16 01:33:36;;;;;;;6.60;6.20;;;;;;;11.85;100.00;149018.34;5115489;28;20191;-56
2022/10/16 01:36:11;;;;;;;7.27;6.63;;;;;;;11.84;100.00;149017.06;5115651;28;20240;-57
2022/10/16 01:38:40;;;;;;;6.43;5.93;;;;;;;11.83;100.00;149013.28;5115718;28;20580;-57
2022/10/16 01:41:11;;;;;;;8.47;6.23;;;;;;;11.64;100.00;148966.41;5115602;28;20180;-56
2022/10/16 01:43:43;;;;;;;7.30;6.67;;;;;;;11.80;100.00;149005.66;5115398;28;20180;-57
2022/10/16 01:46:12;;;;;;;6.43;6.13;;;;;;;11.52;100.00;148936.06;5115460;28;20184;-57
2022/10/16 01:48:40;;;;;;;6.13;5.73;;;;;;;11.70;100.00;148980.34;5115567;28;20195;-56
2022/10/16 01:51:09;;;;;;;14.40;7.10;;;;;;;11.69;100.00;148977.81;5115292;28;20195;-56
2022/10/16 01:53:37;;;;;;;5.90;5.40;;;;;;;11.67;100.00;148972.78;5115823;28;20194;-56
2022/10/16 01:56:08;;;;;;;6.80;6.20;;;;;;;11.57;100.00;148948.72;5115064;28;20187;-57
2022/10/16 01:58:38;;;;;;;5.90;5.60;;;;;;;11.54;100.00;148939.88;5115048;28;20209;-56
2022/10/16 02:01:12;;;;;;;7.40;6.07;;;;;;;11.68;100.00;148975.25;5115379;28;20638;-57
2022/10/16 02:03:43;;;;;;;6.10;5.60;;;;;;;11.51;100.00;148932.25;5114956;28;20183;-56
2022/10/16 02:06:10;;;;;;;5.97;5.67;;;;;;;11.55;100.00;148942.38;5115155;28;20248;-57
2022/10/16 02:08:38;;;;;;;5.90;5.53;;;;;;;11.60;100.00;148956.28;5114184;28;20274;-57
2022/10/16 02:11:05;;;;;;;5.60;5.30;;;;;;;11.45;100.00;148918.38;5114691;28;20244;-57
2022/10/16 02:13:38;;;;;;;5.70;5.20;;;;;;;11.34;100.00;148891.78;5114953;28;20187;-57
2022/10/16 02:16:05;;;;;;;6.17;4.73;;;;;;;11.55;100.00;148942.38;5114598;28;20194;-55
2022/10/16 02:18:33;;;;;;;4.67;4.33;;;;;;;11.50;100.00;148929.75;5114997;28;20183;-56
2022/10/16 02:21:08;;;;;;;5.30;4.90;;;;;;;11.36;100.00;148895.59;5114640;28;20237;-57
2022/10/16 02:23:44;;;;;;;4.43;4.17;;;;;;;11.41;100.00;148908.25;5114650;28;20178;-56
2022/10/16 02:26:16;;;;;;;5.97;4.70;;;;;;;11.43;100.00;148914.56;5114499;28;20183;-57
2022/10/16 02:28:46;;;;;;;4.80;4.40;;;;;;;11.40;100.00;148906.97;5114676;28;20195;-57
2022/10/16 02:31:17;;;;;;;5.20;4.87;;;;;;;11.31;100.00;148884.22;5114411;28;20187;-56
2022/10/16 02:33:47;;;;;;;4.67;4.47;;;;;;;11.13;100.00;148838.66;5114302;28;20184;-57
2022/10/16 02:36:14;;;;;;;5.20;4.83;;;;;;;11.29;100.00;148879.13;5114214;28;20198;-55
2022/10/16 02:38:42;;;;;;;5.40;5.00;;;;;;;11.29;100.00;148879.13;5114364;28;20180;-57
2022/10/16 02:41:09;;;;;;;4.90;4.60;;;;;;;11.23;100.00;148862.72;5114225;28;20194;-57
2022/10/16 02:43:36;;;;;;;5.00;4.60;;;;;;;11.24;100.00;148866.53;5114491;28;20187;-56
2022/10/16 02:46:03;;;;;;;6.73;5.37;;;;;;;11.11;100.00;148832.38;5114473;28;20539;-56
2022/10/16 02:48:30;;;;;;;4.60;4.33;;;;;;;11.22;100.00;148861.44;5114892;28;20187;-57
2022/10/16 02:50:58;;;;;;;4.57;4.37;;;;;;;11.28;100.00;148876.63;5113990;28;20190;-56
2022/10/16 02:53:25;;;;;;;5.07;4.60;;;;;;;11.26;100.00;148871.56;5114002;28;20270;-56
2022/10/16 02:55:52;;;;;;;4.97;4.73;;;;;;;11.23;100.00;148863.97;5114032;28;20199;-56
2022/10/16 02:58:19;;;;;;;5.13;4.63;;;;;;;11.20;100.00;148855.13;5113903;28;20187;-57
2022/10/16 03:00:46;;;;;;;4.80;4.60;;;;;;;11.12;100.00;148834.91;5113794;28;20184;-58
2022/10/16 03:03:13;;;;;;;7.60;4.60;;;;;;;10.84;100.00;148765.31;5113732;28;20186;-57
2022/10/16 03:05:40;;;;;;;4.80;4.40;;;;;;;11.12;100.00;148834.91;5114291;28;20184;-56
2022/10/16 03:08:08;;;;;;;5.63;4.90;;;;;;;11.15;100.00;148843.75;5113907;28;20187;-57
2022/10/16 03:10:35;;;;;;;4.73;4.43;;;;;;;11.12;100.00;148836.13;5113934;28;20188;-57
2022/10/16 03:13:02;;;;;;;5.33;4.50;;;;;;;11.11;100.00;148832.38;5113729;28;20183;-56
2022/10/16 03:15:29;;;;;;;4.50;4.30;;;;;;;11.13;100.00;148838.66;5114005;28;20203;-57
2022/10/16 03:17:58;;;;;;;6.03;5.00;;;;;;;11.10;100.00;148831.09;5113900;28;20190;-56
2022/10/16 03:20:25;;;;;;;4.30;4.10;;;;;;;10.85;100.00;148767.88;5113686;28;20229;-57
2022/10/16 03:22:52;;;;;;;4.27;3.97;;;;;;;11.04;100.00;148815.91;5113639;28;20188;-56
2022/10/16 03:25:20;;;;;;;5.93;4.80;;;;;;;11.01;100.00;148808.31;5113615;28;20557;-56
2022/10/16 03:27:47;;;;;;;4.37;4.10;;;;;;;11.04;100.00;148814.63;5113729;28;20191;-58
2022/10/16 03:30:14;;;;;;;4.60;4.10;;;;;;;10.97;100.00;148798.22;5113548;28;20277;-55
2022/10/16 03:32:41;;;;;;;4.13;3.93;;;;;;;10.92;100.00;148785.56;5113196;28;20180;-56
2022/10/16 03:35:08;;;;;;;4.90;4.50;;;;;;;11.01;100.00;148808.31;5113061;28;20207;-56
2022/10/16 03:37:36;;;;;;;4.20;4.00;;;;;;;10.96;100.00;148796.94;5113518;28;20634;-56
2022/10/16 03:40:03;;;;;;;6.30;4.30;;;;;;;10.98;100.00;148802.03;5113421;28;20645;-56
2022/10/16 03:42:31;;;;;;;4.70;4.50;;;;;;;11.01;100.00;148808.31;5113046;28;20219;-56
2022/10/16 03:44:58;;;;;;;4.90;4.60;;;;;;;10.93;100.00;148788.09;5112921;28;20186;-58
2022/10/16 03:47:25;;;;;;;4.97;4.73;;;;;;;11.02;100.00;148810.88;5113266;28;20630;-57
2022/10/16 03:49:52;;;;;;;5.40;5.00;;;;;;;11.08;100.00;148824.75;5113207;28;20214;-56
2022/10/16 03:52:19;;;;;;;4.93;4.63;;;;;;;10.97;100.00;148798.22;5113134;28;20184;-56
2022/10/16 03:54:46;;;;;;;5.57;5.13;;;;;;;11.09;100.00;148828.56;5113103;28;20207;-57
2022/10/16 03:57:13;;;;;;;5.33;4.93;;;;;;;11.08;100.00;148826.00;5112749;28;20187;-56
2022/10/16 03:59:41;;;;;;;5.33;4.90;;;;;;;11.13;100.00;148838.66;5113048;28;20637;-56
2022/10/16 04:02:08;;;;;;;5.73;5.33;;;;;;;11.21;100.00;148858.91;5112407;28;20205;-57
2022/10/16 04:04:35;;;;;;;5.80;5.27;;;;;;;11.19;100.00;148853.84;5112631;28;20183;-56
2022/10/16 04:07:02;;;;;;;5.37;4.97;;;;;;;11.24;100.00;148866.53;5094610;28;20194;-56
2022/10/16 04:09:29;;;;;;;5.43;4.93;;;;;;;11.31;100.00;148882.94;5112601;28;20190;-57
2022/10/16 04:11:56;;;;;;;4.60;4.30;;;;;;;11.24;100.00;148865.25;5112636;28;20193;-57
2022/10/16 04:14:23;;;;;;;8.10;4.90;;;;;;;11.50;100.00;148930.97;5112373;28;20264;-56
2022/10/16 04:16:51;;;;;;;5.20;4.70;;;;;;;11.38;100.00;148900.63;5112760;28;20535;-57
2022/10/16 04:19:18;;;;;;;5.07;4.77;;;;;;;11.54;100.00;148939.88;5112799;28;20206;-56
2022/10/16 04:21:45;;;;;;;5.23;4.73;;;;;;;11.62;100.00;148960.09;5112412;28;20231;-56
2022/10/16 04:24:12;;;;;;;8.43;4.83;;;;;;;11.43;100.00;148913.28;5112395;28;20194;-56
2022/10/16 04:26:39;;;;;;;6.07;5.67;;;;;;;11.67;100.00;148972.78;5112677;28;20184;-56
2022/10/16 04:29:07;;;;;;;5.33;5.10;;;;;;;11.77;100.00;148999.38;5112539;28;20236;-57
2022/10/16 04:31:34;;;;;;;5.20;5.00;;;;;;;11.81;100.00;149008.22;5111741;28;20191;-56
2022/10/16 04:34:02;;;;;;;5.90;5.33;;;;;;;11.81;100.00;149008.22;5112173;28;20196;-56
2022/10/16 04:36:29;;;;;;;5.33;5.03;;;;;;;11.65;100.00;148967.69;5112408;28;20207;-56
2022/10/16 04:38:56;;;;;;;5.27;4.87;;;;;;;11.62;100.00;148961.38;5112538;28;20228;-57
2022/10/16 04:41:23;;;;;;;5.83;5.13;;;;;;;11.49;100.00;148927.22;5112524;28;20660;-57
2022/10/16 04:43:50;;;;;;;6.40;6.10;;;;;;;11.54;100.00;148941.16;5112145;28;20207;-57
2022/10/16 04:46:17;;;;;;;6.53;6.17;;;;;;;11.61;100.00;148958.84;5112403;28;20554;-57
2022/10/16 04:48:44;;;;;;;7.47;6.63;;;;;;;11.55;100.00;148942.38;5112437;28;20189;-56
2022/10/16 04:51:12;;;;;;;7.70;6.63;;;;;;;11.74;100.00;148991.78;5112195;28;20179;-57
2022/10/16 04:53:39;;;;;;;7.13;6.63;;;;;;;11.85;100.00;149018.34;5111970;28;20179;-57
2022/10/16 04:56:06;;;;;;;7.53;6.43;;;;;;;12.08;100.00;149075.28;5112327;28;20214;-57
2022/10/16 04:58:33;;;;;;;7.03;6.37;;;;;;;12.44;100.00;149165.13;5112004;28;20187;-57
2022/10/16 05:01:00;;;;;;;6.57;6.03;;;;;;;12.68;100.00;149225.94;5112239;28;20236;-57
2022/10/16 05:03:27;;;;;;;6.23;5.83;;;;;;;12.72;100.00;149236.06;5111997;28;20191;-56
2022/10/16 05:05:54;;;;;;;6.07;5.73;;;;;;;12.71;100.00;149233.53;5112284;28;20673;-58
2022/10/16 05:08:22;;;;;;;5.93;5.63;;;;;;;12.99;100.00;149303.16;5112133;28;20188;-57
2022/10/16 05:10:49;;;;;;;6.50;6.00;;;;;;;13.15;100.00;149343.75;5111904;28;20187;-58
2022/10/16 05:13:16;;;;;;;9.13;5.57;;;;;;;13.34;100.00;149391.88;5111983;28;20188;-57
2022/10/16 05:15:43;;;;;;;5.97;5.63;;;;;;;13.65;100.00;149470.44;5110885;28;20665;-57
2022/10/16 05:18:10;;;;;;;6.60;6.20;;;;;;;13.61;100.00;149459.03;5112047;28;20191;-58
2022/10/16 05:20:37;;;;;;;6.53;6.23;;;;;;;13.79;100.00;149504.63;5111980;28;20750;-56
2022/10/16 05:23:04;;;;;;;6.13;5.63;;;;;;;13.73;100.00;149490.72;5111911;28;20192;-57
2022/10/16 05:25:32;;;;;;;6.37;5.77;;;;;;;13.56;100.00;149446.34;5112047;28;20648;-56
2022/10/16 05:27:59;;;;;;;6.13;5.90;;;;;;;13.62;100.00;149462.81;5112226;28;20710;-56
2022/10/16 05:30:26;;;;;;;6.80;5.97;;;;;;;13.66;100.00;149471.72;5111843;28;20192;-57
2022/10/16 05:32:53;;;;;;;6.57;5.90;;;;;;;13.70;100.00;149481.84;5111683;28;20270;-58
2022/10/16 05:35:20;;;;;;;6.90;6.30;;;;;;;13.70;100.00;149481.84;5111937;28;20294;-56
2022/10/16 05:37:49;;;;;;;5.83;5.57;;;;;;;13.64;100.00;149466.63;5111787;28;20275;-56
2022/10/16 05:40:16;;;;;;;6.57;6.07;;;;;;;13.77;100.00;149499.56;5111932;28;20260;-56
2022/10/16 05:42:45;;;;;;;6.43;6.03;;;;;;;13.71;100.00;149484.34;5111619;28;20187;-57
2022/10/16 05:45:12;;;;;;;6.67;6.00;;;;;;;13.82;100.00;149512.25;5115324;28;20175;-56
2022/10/16 05:47:39;;;;;;;6.40;6.00;;;;;;;13.89;100.00;149528.72;5115577;28;20242;-57
2022/10/16 05:50:07;;;;;;;6.07;5.57;;;;;;;13.94;100.00;149541.41;5115359;28;20202;-56
2022/10/16 05:52:34;;;;;;;6.50;6.20;;;;;;;13.96;100.00;149547.72;5115253;28;20187;-56
2022/10/16 05:55:00;;;;;;;7.53;6.07;;;;;;;14.00;100.00;149556.63;5115600;28;20658;-57
2022/10/16 05:57:27;;;;;;;6.87;5.97;;;;;;;14.05;100.00;149569.25;5115333;28;20190;-57
2022/10/16 05:59:56;;;;;;;7.30;5.43;;;;;;;14.18;100.00;149602.22;5115309;28;20638;-56
2022/10/16 06:02:23;;;;;;;10.00;6.07;;;;;;;14.36;100.00;149647.91;5115905;28;20195;-58
2022/10/16 06:04:49;;;;;;;6.67;6.23;;;;;;;14.68;100.00;149727.81;5114855;28;20219;-56
2022/10/16 06:07:16;;;;;;;6.37;5.87;;;;;;;14.92;100.00;149787.41;5114893;28;20191;-57
2022/10/16 06:09:43;;;;;;;5.80;5.50;;;;;;;15.10;100.00;149833.09;5114865;28;20188;-60
2022/10/16 06:12:10;;;;;;;6.00;5.70;;;;;;;15.74;100.00;149994.25;5115122;28;20561;-57
2022/10/16 06:14:37;;;;;;;6.23;5.73;;;;;;;16.05;100.00;150070.41;5114983;28;20186;-58
2022/10/16 06:17:05;;;;;;;6.13;5.63;;;;;;;16.86;100.00;150276.19;5114577;28;20213;-57
2022/10/16 06:19:32;;;;;;;8.20;6.20;;;;;;;17.34;100.00;150395.59;5114783;28;20202;-58
2022/10/16 06:22:00;;;;;;;6.13;5.87;;;;;;;17.79;100.00;150510.00;5114589;28;20319;-58
2022/10/16 06:24:26;;;;;;;5.97;5.57;;;;;;;17.67;100.00;150479.50;5114764;28;20183;-57
2022/10/16 06:26:54;;;;;;;6.07;4.87;;;;;;;17.96;100.00;150550.69;5115052;28;20190;-57
2022/10/16 06:29:21;;;;;;;5.37;4.97;;;;;;;18.18;97.10;150607.91;5115501;28;20194;-58
2022/10/16 06:31:48;;;;;;;5.80;5.40;;;;;;;18.41;94.35;150665.16;5114719;28;20270;-57
2022/10/16 06:34:16;;;;;;;5.33;5.03;;;;;;;18.77;92.75;150755.47;5113552;28;20576;-58
2022/10/16 06:36:43;;;;;;;4.97;4.67;;;;;;;19.20;89.35;150863.59;5114564;28;20662;-58
2022/10/16 06:39:11;;;;;;;3.73;3.63;;;;;;;19.42;86.10;150919.59;5114648;28;20240;-57
2022/10/16 06:41:38;;;;;;;3.20;3.00;;;;;;;19.47;83.86;150931.09;5114545;28;20557;-58
2022/10/16 06:44:08;;;;;;;2.70;2.37;;;;;;;18.95;86.13;150801.28;5114520;28;20274;-57
2022/10/16 06:46:35;;;;;;;2.47;2.27;;;;;;;18.16;92.22;150601.56;5114461;28;20577;-57
2022/10/16 06:49:02;;;;;;;4.00;2.57;;;;;;;18.34;96.28;150647.31;5114445;28;20627;-57
2022/10/16 06:51:33;;;;;;;4.37;2.47;;;;;;;18.68;94.45;150733.84;5114023;28;20202;-58
2022/10/16 06:54:00;;;;;;;2.30;2.10;;;;;;;19.26;91.87;150878.88;5113662;28;20282;-57
2022/10/16 06:56:29;;;;;;;4.67;2.30;;;;;;;19.20;87.93;150863.59;5114296;28;20577;-57
2022/10/16 06:58:57;;;;;;;4.73;2.30;;;;;;;19.82;87.51;151020.16;5113937;28;20195;-58
2022/10/16 07:01:26;;;;;;;5.30;2.13;;;;;;;20.38;82.55;151161.56;5112777;28;20191;-58
2022/10/16 07:03:53;;;;;;;3.27;2.30;;;;;;;19.93;81.13;151048.19;5096260;28;20190;-58
2022/10/16 07:06:22;;;;;;;5.50;2.30;;;;;;;19.83;82.09;151021.44;5113735;28;20270;-58
2022/10/16 07:08:50;;;;;;;4.47;1.73;;;;;;;20.54;82.24;151199.78;5113779;28;20190;-58
2022/10/16 07:11:19;;;;;;;2.60;2.40;;;;;;;20.74;79.01;151252.00;5113684;28;20203;-58
2022/10/16 07:13:48;;;;;;;4.60;2.13;;;;;;;20.93;77.19;151300.38;5113960;28;20214;-58
2022/10/16 07:16:16;;;;;;;2.30;2.00;;;;;;;20.93;76.70;151300.38;5113493;28;20302;-58
2022/10/16 07:18:45;;;;;;;2.20;2.10;;;;;;;21.13;76.57;151350.09;5113709;28;20187;-59
2022/10/16 07:21:14;;;;;;;2.70;1.87;;;;;;;20.81;78.99;151268.53;5113285;28;20230;-58
2022/10/16 07:23:41;;;;;;;2.50;2.27;;;;;;;21.12;75.85;151347.59;5113467;28;20188;-58
2022/10/16 07:26:11;;;;;;;3.95;1.90;;;;;;;21.78;73.29;151513.22;5095559;28;20665;-59
2022/10/16 07:28:39;;;;;;;3.40;2.15;;;;;;;22.16;69.65;151608.88;5113265;28;20194;-58
2022/10/16 07:31:08;;;;;;;2.17;2.03;;;;;;;22.55;67.88;151707.09;5113243;28;20186;-58
2022/10/16 07:33:36;;;;;;;2.40;1.60;;;;;;;21.88;68.50;151538.75;5113224;28;20187;-58
2022/10/16 07:36:03;;;;;;;4.70;1.98;;;;;;;21.96;69.42;151559.19;5113468;28;20204;-59
2022/10/16 07:38:30;;;;;;;1.95;1.80;;;;;;;22.12;67.22;151599.97;5113583;28;20191;-58
2022/10/16 07:40:58;;;;;;;2.00;1.80;;;;;;;21.11;69.14;151343.69;5113359;28;20198;-58
2022/10/16 07:43:27;;;;;;;4.95;1.75;;;;;;;20.83;74.59;151273.66;5095098;28;20562;-58
2022/10/16 07:45:55;;;;;;;6.88;2.15;;;;;;;21.74;69.56;151503.03;5113251;28;20221;-59
2022/10/16 07:48:23;;;;;;;2.65;2.03;;;;;;;21.66;69.09;151482.66;5112939;28;20189;-58
2022/10/16 07:50:50;;;;;;;4.55;1.98;;;;;;;22.19;67.79;151617.81;5113263;28;20634;-58
2022/10/16 07:53:17;;;;;;;2.17;1.70;;;;;;;22.28;66.41;151640.75;5112961;28;20200;-59
2022/10/16 07:55:44;;;;;;;3.22;2.20;;;;;;;22.52;64.50;151700.72;5112845;28;20207;-57
2022/10/16 07:58:11;;;;;;;2.08;1.98;;;;;;;22.54;65.04;151704.53;5112807;28;20191;-59
2022/10/16 08:00:39;;;;;;;2.20;2.00;;;;;;;21.19;67.92;151365.41;5113098;28;20206;-58
2022/10/16 08:03:06;;;;;;;2.00;1.90;;;;;;;21.41;68.72;151421.50;5113598;28;20246;-58
2022/10/16 08:05:34;;;;;;;1.80;1.70;;;;;;;21.80;69.66;151518.34;5113034;28;20595;-64
2022/10/16 08:08:01;;;;;;;4.80;2.00;;;;;;;22.48;65.44;151689.25;5112739;28;20179;-64
2022/10/16 08:10:31;;;;;;;3.20;1.80;;;;;;;21.93;67.52;151550.28;5112532;28;20604;-64
2022/10/16 08:12:58;;;;;;;2.28;1.73;;;;;;;22.24;66.23;151630.56;5112542;28;20282;-64
2022/10/16 08:15:25;;;;;;;1.95;1.77;;;;;;;21.93;66.54;151551.53;5112436;28;20189;-64
2022/10/16 08:17:58;;;;;;;2.20;2.10;;;;;;;21.70;66.37;151494.13;5112446;28;20180;-65
2022/10/16 08:20:25;;;;;;;2.10;1.90;;;;;;;22.41;65.95;151672.63;5112389;28;20233;-64
2022/10/16 08:22:53;;;;;;;1.88;1.77;;;;;;;23.31;63.79;151898.47;5112633;28;20189;-64
2022/10/16 08:25:19;;;;;;;2.22;1.65;;;;;;;22.95;61.89;151809.19;5112779;28;20222;-63
2022/10/16 08:27:46;;;;;;;2.47;2.13;;;;;;;23.58;59.21;151967.47;5112363;28;20183;-63
2022/10/16 08:30:14;;;;;;;1.75;1.65;;;;;;;24.76;56.13;152266.25;5112421;28;20183;-64
2022/10/16 08:32:44;;;;;;;2.75;1.67;;;;;;;25.09;52.91;152349.31;5111248;28;20191;-64
2022/10/16 08:35:14;;;;;;;1.63;1.52;;;;;;;25.65;52.01;152491.22;5112256;28;20187;-58
2022/10/16 08:37:42;;;;;;;2.00;1.90;;;;;;;26.45;49.04;152693.22;5112299;28;20207;-57
2022/10/16 08:40:18;;;;;;;4.05;1.60;;;;;;;26.86;47.27;152796.88;5112209;28;20190;-58
2022/10/16 08:42:58;;;;;;;1.63;1.52;;;;;;;26.59;48.42;152727.75;5112585;28;20194;-58
2022/10/16 08:45:44;;;;;;;4.85;2.05;;;;;;;27.37;46.20;152926.03;5112145;28;20194;-58
2022/10/16 08:48:20;;;;;;;1.80;1.70;;;;;;;26.54;46.17;152716.25;5109279;28;20206;-59
2022/10/16 08:50:50;;;;;;;1.98;1.88;;;;;;;26.95;45.90;152819.84;5112507;28;20195;-58
2022/10/16 08:53:23;;;;;;;1.88;1.77;;;;;;;27.21;44.99;152886.38;5112076;28;20212;-59
2022/10/16 08:55:52;;;;;;;3.72;2.25;;;;;;;27.44;44.92;152942.69;5112299;28;20643;-58
2022/10/16 08:58:21;;;;;;;8.68;1.80;;;;;;;27.40;44.68;152933.75;5112234;28;20238;-57
2022/10/16 09:00:50;;;;;;;1.67;1.55;;;;;;;27.63;43.02;152992.63;5112356;28;20184;-57
2022/10/16 09:03:37;;;;;;;1.90;1.50;;;;;;;26.74;43.12;152766.09;5111944;28;20191;-57
2022/10/16 09:06:22;;;;;;;3.38;1.65;;;;;;;23.50;50.29;151947.03;5112220;28;20506;-59
2022/10/16 09:09:04;;;;;;;2.67;1.80;;;;;;;25.34;49.72;152411.91;5112155;28;20526;-58
2022/10/16 09:11:45;;;;;;;1.80;1.70;;;;;;;26.01;46.44;152581.97;5112090;28;20187;-57
2022/10/16 09:14:36;;;;;;;3.40;1.77;;;;;;;26.51;45.53;152708.59;5111814;28;20195;-57
2022/10/16 09:17:17;;;;;;;2.03;1.60;;;;;;;26.01;44.28;152580.69;5112349;28;20234;-58
2022/10/16 09:19:50;;;;;;;1.95;1.85;;;;;;;24.57;47.15;152217.69;5116026;28;20225;-58
2022/10/16 09:22:22;;;;;;;2.25;2.00;;;;;;;24.42;48.32;152179.41;5115570;28;20606;-57
2022/10/16 09:24:49;;;;;;;2.88;1.77;;;;;;;24.66;47.55;152240.69;5116032;28;20565;-57
2022/10/16 09:27:17;;;;;;;1.73;1.63;;;;;;;23.80;49.77;152022.34;5115687;28;20270;-58
2022/10/16 09:29:43;;;;;;;1.90;1.80;;;;;;;23.96;49.92;152063.19;5115833;28;20190;-57
2022/10/16 09:32:13;;;;;;;1.92;1.52;;;;;;;24.74;48.75;152261.13;5114746;28;20553;-57
2022/10/16 09:34:46;;;;;;;2.67;1.60;;;;;;;25.58;47.91;152472.03;5115455;28;20231;-57
2022/10/16 09:37:18;;;;;;;2.15;1.90;;;;;;;26.29;44.68;152652.31;5115391;28;20203;-59
2022/10/16 09:39:50;;;;;;;3.38;1.90;;;;;;;25.56;44.89;152466.91;5115420;28;20183;-57
2022/10/16 09:42:18;;;;;;;1.98;1.88;;;;;;;25.81;45.79;152532.09;5115813;28;20190;-58
2022/10/16 09:44:50;;;;;;;1.60;1.50;;;;;;;26.45;44.16;152691.94;5115725;28;20546;-57
2022/10/16 09:47:21;;;;;;;1.83;1.73;;;;;;;26.82;43.20;152787.84;5115227;28;20218;-58
2022/10/16 09:49:57;;;;;;;1.75;1.65;;;;;;;27.01;42.27;152833.94;5115294;28;20188;-57
2022/10/16 09:52:24;;;;;;;1.17;1.17;;;;;;;26.88;42.93;152801.97;5115559;28;20715;-57
2022/10/16 09:54:55;;;;;;;4.65;1.70;;;;;;;26.18;43.43;152624.16;5115474;28;20206;-58
2022/10/16 09:57:23;;;;;;;4.82;1.60;;;;;;;26.83;43.78;152789.13;5115409;28;20692;-57
2022/10/16 09:59:51;;;;;;;2.35;1.80;;;;;;;24.93;45.00;152309.72;5115222;28;20282;-58
2022/10/16 10:02:20;;;;;;;1.90;1.80;;;;;;;25.02;45.62;152332.72;5115276;28;20194;-57
2022/10/16 10:04:53;;;;;;;3.45;1.67;;;;;;;25.86;45.49;152544.88;5115284;28;20543;-57
2022/10/16 10:07:26;;;;;;;1.70;1.60;;;;;;;23.93;46.54;152056.75;5114963;28;20213;-57
2022/10/16 10:09:55;;;;;;;2.22;1.50;;;;;;;22.86;48.35;151786.22;5115101;28;20179;-57
2022/10/16 10:12:25;;;;;;;1.90;1.75;;;;;;;22.00;51.00;151568.09;5115097;28;20595;-57
2022/10/16 10:14:53;;;;;;;1.65;1.55;;;;;;;22.93;51.15;151804.06;5115111;28;20651;-57
2022/10/16 10:17:22;;;;;;;1.45;1.42;;;;;;;23.26;48.84;151887.00;5114667;28;20207;-57
2022/10/16 10:19:51;;;;;;;3.58;1.67;;;;;;;22.49;50.99;151691.81;5115001;28;20203;-57
2022/10/16 10:22:23;;;;;;;2.58;1.60;;;;;;;24.20;50.04;152124.50;5114566;28;20262;-57
2022/10/16 10:25:01;;;;;;;4.20;1.70;;;;;;;25.64;46.59;152488.63;5114937;28;20194;-57
2022/10/16 10:27:39;;;;;;;2.13;1.70;;;;;;;27.14;44.34;152867.22;5114584;28;20252;-61
2022/10/16 10:30:16;;;;;;;4.90;1.80;;;;;;;26.67;41.46;152749.50;5095554;28;20202;-61
2022/10/16 10:32:52;;;;;;;3.13;1.63;;;;;;;25.03;42.85;152334.00;5114734;28;20627;-60
2022/10/16 10:35:23;;;;;;;1.65;1.55;;;;;;;22.91;48.95;151797.72;5114704;28;20667;-61
2022/10/16 10:38:03;;;;;;;2.50;1.65;;;;;;;23.69;47.88;151995.50;5114442;28;20203;-60
2022/10/16 10:40:44;;;;;;;1.85;1.50;;;;;;;23.20;48.24;151873.00;5114706;28;20637;-61
2022/10/16 10:43:22;;;;;;;4.63;1.67;;;;;;;24.46;45.99;152190.91;5114346;28;20182;-61
2022/10/16 10:45:55;;;;;;;2.58;1.65;;;;;;;24.70;46.88;152250.91;5114289;28;20340;-60
2022/10/16 10:48:49;;;;;;;1.60;1.48;;;;;;;26.21;44.51;152631.84;5114472;28;20206;-60
2022/10/16 10:51:22;;;;;;;1.90;1.73;;;;;;;25.94;43.45;152564.03;5114012;28;20635;-60
2022/10/16 10:53:57;;;;;;;3.22;1.73;;;;;;;25.68;44.03;152498.84;5114480;28;20577;-59
2022/10/16 10:56:44;;;;;;;1.20;1.20;;;;;;;25.66;43.04;152492.50;5113963;28;20189;-60
2022/10/16 10:59:33;;;;;;;2.75;1.88;;;;;;;23.19;45.62;151870.41;5114245;28;20179;-60
2022/10/16 11:02:05;;;;;;;3.40;1.98;;;;;;;22.31;48.94;151648.44;5112954;28;20187;-59
2022/10/16 11:05:05;;;;;;;1.88;1.77;;;;;;;22.18;51.34;151615.28;5113929;28;20190;-60
2022/10/16 11:07:35;;;;;;;1.80;1.70;;;;;;;21.01;54.33;151319.47;5086962;28;20198;-60
2022/10/16 11:10:10;;;;;;;2.10;1.67;;;;;;;20.60;54.88;151215.03;5113696;28;20184;-59
2022/10/16 11:12:43;;;;;;;2.15;2.05;;;;;;;20.00;57.69;151064.72;5113954;28;20539;-59
2022/10/16 11:15:17;;;;;;;2.10;2.00;;;;;;;19.49;59.31;150937.44;5113596;28;20190;-58
2022/10/16 11:17:51;;;;;;;1.90;1.80;;;;;;;18.78;64.52;150756.75;5113841;28;20648;-59
2022/10/16 11:20:23;;;;;;;4.13;1.90;;;;;;;18.47;67.44;150680.38;5113263;28;20219;-59
2022/10/16 11:22:56;;;;;;;1.90;1.87;;;;;;;18.47;70.97;150680.38;5113945;28;20661;-59
2022/10/16 11:25:25;;;;;;;2.40;2.30;;;;;;;18.48;72.76;150681.66;5113390;28;20187;-60
2022/10/16 11:27:59;;;;;;;3.93;2.13;;;;;;;18.81;72.33;150765.63;5113440;28;20189;-58
2022/10/16 11:30:28;;;;;;;3.43;2.23;;;;;;;18.81;71.45;150764.34;5113360;28;20216;-59